sensor_id;sensor_type;location;lat;lon;timestamp;P1;durP1;ratioP1;P2;durP2;ratioP2
43690;SDS011;29293;52.190;21.226;2023-04-03T00:02:01;4.60;;;1.80;;
43690;SDS011;29293;52.190;21.226;2023-04-03T00:17:09;4.70;;;1.80;;
43690;SDS011;29293;52.190;21.226;2023-04-03T00:32:16;6.60;;;1.90;;
43690;SDS011;29293;52.190;21.226;2023-04-03T00:47:23;6.90;;;1.80;;
43690;SDS011;29293;52.190;21.226;2023-04-03T01:02:32;8.00;;;2.20;;
43690;SDS011;29293;52.190;21.226;2023-04-03T01:17:40;5.50;;;1.80;;
43690;SDS011;29293;52.190;21.226;2023-04-03T01:32:49;6.60;;;1.90;;
43690;SDS011;29293;52.190;21.226;2023-04-03T01:47:56;4.20;;;1.60;;
43690;SDS011;29293;52.190;21.226;2023-04-03T02:03:03;4.40;;;1.40;;
43690;SDS011;29293;52.190;21.226;2023-04-03T02:18:11;5.40;;;1.90;;
43690;SDS011;29293;52.190;21.226;2023-04-03T02:33:19;7.60;;;1.60;;
43690;SDS011;29293;52.190;21.226;2023-04-03T02:48:25;4.50;;;1.30;;
43690;SDS011;29293;52.190;21.226;2023-04-03T03:03:33;5.70;;;1.50;;
43690;SDS011;29293;52.190;21.226;2023-04-03T03:18:40;3.50;;;1.60;;
43690;SDS011;29293;52.190;21.226;2023-04-03T03:33:47;7.80;;;1.60;;
43690;SDS011;29293;52.190;21.226;2023-04-03T03:48:54;4.40;;;1.70;;
43690;SDS011;29293;52.190;21.226;2023-04-03T04:04:01;5.80;;;1.70;;
43690;SDS011;29293;52.190;21.226;2023-04-03T04:19:08;4.60;;;1.50;;
43690;SDS011;29293;52.190;21.226;2023-04-03T04:34:15;4.60;;;1.60;;
43690;SDS011;29293;52.190;21.226;2023-04-03T04:49:22;6.50;;;2.20;;
43690;SDS011;29293;52.190;21.226;2023-04-03T05:04:29;7.90;;;1.70;;
43690;SDS011;29293;52.190;21.226;2023-04-03T05:19:37;3.90;;;1.70;;
43690;SDS011;29293;52.190;21.226;2023-04-03T05:34:44;5.00;;;1.80;;
43690;SDS011;29293;52.190;21.226;2023-04-03T05:49:51;5.80;;;1.60;;
43690;SDS011;29293;52.190;21.226;2023-04-03T06:04:57;7.40;;;2.00;;
43690;SDS011;29293;52.190;21.226;2023-04-03T06:20:05;4.50;;;1.70;;
43690;SDS011;29293;52.190;21.226;2023-04-03T06:35:14;7.50;;;1.90;;
43690;SDS011;29293;52.190;21.226;2023-04-03T06:50:21;4.80;;;1.80;;
43690;SDS011;29293;52.190;21.226;2023-04-03T07:05:28;5.00;;;2.10;;
43690;SDS011;29293;52.190;21.226;2023-04-03T07:20:35;7.40;;;2.30;;
43690;SDS011;29293;52.190;21.226;2023-04-03T07:35:45;4.90;;;2.20;;
43690;SDS011;29293;52.190;21.226;2023-04-03T07:50:52;6.30;;;1.90;;
43690;SDS011;29293;52.190;21.226;2023-04-03T08:06:05;5.20;;;1.80;;
43690;SDS011;29293;52.190;21.226;2023-04-03T08:21:14;5.30;;;1.90;;
43690;SDS011;29293;52.190;21.226;2023-04-03T08:36:22;3.50;;;1.40;;
43690;SDS011;29293;52.190;21.226;2023-04-03T08:51:31;5.50;;;1.80;;
43690;SDS011;29293;52.190;21.226;2023-04-03T09:06:39;5.50;;;1.60;;
43690;SDS011;29293;52.190;21.226;2023-04-03T09:21:50;3.90;;;1.50;;
43690;SDS011;29293;52.190;21.226;2023-04-03T09:36:57;3.50;;;1.40;;
43690;SDS011;29293;52.190;21.226;2023-04-03T09:52:19;3.30;;;1.50;;
43690;SDS011;29293;52.190;21.226;2023-04-03T10:07:33;3.40;;;1.50;;
43690;SDS011;29293;52.190;21.226;2023-04-03T10:22:47;2.80;;;1.40;;
43690;SDS011;29293;52.190;21.226;2023-04-03T10:38:03;4.70;;;1.40;;
43690;SDS011;29293;52.190;21.226;2023-04-03T10:53:19;2.90;;;1.40;;
43690;SDS011;29293;52.190;21.226;2023-04-03T11:08:38;4.00;;;1.90;;
43690;SDS011;29293;52.190;21.226;2023-04-03T11:23:50;4.90;;;1.40;;
43690;SDS011;29293;52.190;21.226;2023-04-03T11:39:07;2.50;;;1.30;;
43690;SDS011;29293;52.190;21.226;2023-04-03T12:25:12;2.80;;;1.40;;
43690;SDS011;29293;52.190;21.226;2023-04-03T12:40:55;2.90;;;1.30;;
43690;SDS011;29293;52.190;21.226;2023-04-03T12:56:22;3.60;;;1.40;;
43690;SDS011;29293;52.190;21.226;2023-04-03T13:11:32;3.90;;;1.40;;
43690;SDS011;29293;52.190;21.226;2023-04-03T13:26:42;3.10;;;1.60;;
43690;SDS011;29293;52.190;21.226;2023-04-03T13:41:50;4.60;;;1.20;;
43690;SDS011;29293;52.190;21.226;2023-04-03T13:56:58;2.80;;;1.10;;
43690;SDS011;29293;52.190;21.226;2023-04-03T14:12:08;3.00;;;1.10;;
43690;SDS011;29293;52.190;21.226;2023-04-03T14:27:22;3.50;;;1.40;;
43690;SDS011;29293;52.190;21.226;2023-04-03T14:42:32;2.90;;;1.30;;
43690;SDS011;29293;52.190;21.226;2023-04-03T14:57:41;3.20;;;1.50;;
43690;SDS011;29293;52.190;21.226;2023-04-03T15:12:57;5.80;;;1.70;;
43690;SDS011;29293;52.190;21.226;2023-04-03T15:28:04;4.40;;;1.70;;
43690;SDS011;29293;52.190;21.226;2023-04-03T15:43:14;3.40;;;1.50;;
43690;SDS011;29293;52.190;21.226;2023-04-03T15:58:21;7.10;;;2.30;;
43690;SDS011;29293;52.190;21.226;2023-04-03T16:13:30;4.80;;;2.00;;
43690;SDS011;29293;52.190;21.226;2023-04-03T16:28:37;4.20;;;1.80;;
43690;SDS011;29293;52.190;21.226;2023-04-03T16:43:44;6.10;;;2.70;;
43690;SDS011;29293;52.190;21.226;2023-04-03T16:58:51;6.20;;;2.80;;
43690;SDS011;29293;52.190;21.226;2023-04-03T17:13:58;8.20;;;3.00;;
43690;SDS011;29293;52.190;21.226;2023-04-03T17:29:06;7.20;;;3.20;;
43690;SDS011;29293;52.190;21.226;2023-04-03T17:44:14;7.60;;;3.60;;
43690;SDS011;29293;52.190;21.226;2023-04-03T17:59:21;10.30;;;4.50;;
43690;SDS011;29293;52.190;21.226;2023-04-03T18:14:29;8.00;;;3.90;;
43690;SDS011;29293;52.190;21.226;2023-04-03T18:29:37;7.90;;;3.40;;
43690;SDS011;29293;52.190;21.226;2023-04-03T18:44:47;11.10;;;4.00;;
43690;SDS011;29293;52.190;21.226;2023-04-03T18:59:57;12.80;;;4.70;;
43690;SDS011;29293;52.190;21.226;2023-04-03T19:15:05;8.40;;;4.00;;
43690;SDS011;29293;52.190;21.226;2023-04-03T19:30:13;8.60;;;4.30;;
43690;SDS011;29293;52.190;21.226;2023-04-03T19:45:20;10.90;;;4.90;;
43690;SDS011;29293;52.190;21.226;2023-04-03T20:00:29;9.80;;;5.00;;
43690;SDS011;29293;52.190;21.226;2023-04-03T20:15:36;6.80;;;2.90;;
43690;SDS011;29293;52.190;21.226;2023-04-03T20:30:45;13.10;;;6.00;;
43690;SDS011;29293;52.190;21.226;2023-04-03T20:45:54;10.10;;;5.20;;
43690;SDS011;29293;52.190;21.226;2023-04-03T21:01:07;9.50;;;4.90;;
43690;SDS011;29293;52.190;21.226;2023-04-03T21:31:23;15.00;;;5.10;;
43690;SDS011;29293;52.190;21.226;2023-04-03T21:46:50;8.30;;;4.40;;
43690;SDS011;29293;52.190;21.226;2023-04-03T22:01:58;12.70;;;5.10;;
43690;SDS011;29293;52.190;21.226;2023-04-03T22:17:07;9.00;;;4.20;;
43690;SDS011;29293;52.190;21.226;2023-04-03T22:32:14;8.90;;;4.10;;
43690;SDS011;29293;52.190;21.226;2023-04-03T22:47:21;10.70;;;4.10;;
43690;SDS011;29293;52.190;21.226;2023-04-03T23:02:28;11.70;;;3.60;;
43690;SDS011;29293;52.190;21.226;2023-04-03T23:17:37;9.10;;;5.00;;
43690;SDS011;29293;52.190;21.226;2023-04-03T23:32:44;10.20;;;3.80;;
43690;SDS011;29293;52.190;21.226;2023-04-03T23:47:51;9.40;;;3.80;;
